Terminal Aerodrome Forecast
Issued by NWS Louisville, KY

Home | Current Version | Previous Version | Text Only | Print | Product List | Glossary On
Versions: 1 2 3 4 5 6 7 8 9 10 11 12 13
000
FTUS43 KLMK 232320
TAFBWG
TAF
KBWG 232320Z 2400/2424 25009KT P6SM VCTS SCT035CB BKN090
     FM240100 VRB05KT P6SM SCT040 BKN250
      TEMPO 2407/2409 3SM BR
     FM240900 VRB04KT 3SM BR FEW045 SCT250
      TEMPO 2411/2413 1 1/2SM BR
     FM241400 24005KT P6SM FEW045 SCT250
     FM242200 30005KT P6SM FEW050 SCT250=

USA.gov is the U.S. government's official web portal to all federal, state and local government web resources and services.